AirNav  
 
 1203 users online  

2OH4 Cedar Creek Airport
Shauck, Ohio, USA

GOING TO SHAUCK?


FAA INFORMATION EFFECTIVE 25 MARCH 2021

Location

FAA Identifier: 2OH4
Lat/Long: 40-37-28.2110N 082-38-07.6200W
40-37.470183N 082-38.127000W
40.6245031,-82.6354500
(estimated)
Elevation: 1220 ft. / 372 m (estimated)
Variation: 05W (1985)
From city: 2 miles E of SHAUCK, OH
Time zone: UTC -4 (UTC -5 during Standard Time)
Zip code: 44813

Airport Operations

Airport use: Private use. Permission required prior to landing
Activation date: 02/1990
Control tower: no
ARTCC: CLEVELAND CENTER
FSS: CLEVELAND FLIGHT SERVICE STATION
Attendance: UNATNDD
Wind indicator: yes
Segmented circle: no

Airport Communications

WX ASOS at MFD (13 nm NE): 125.3 (419-520-4785)
WX AWOS-3 at 17G (18 nm NW): 126.625 (419-562-0279)
WX AWOS-3 at 4I3 (18 nm S): 126.05 (740-397-6297)
WX ASOS at MNN (19 nm W): 119.975 (740-383-3400)

Nearby radio navigation aids

VOR radial/distance  VOR name  Freq  Var
MFDr191/14.8MANSFIELD VORTAC108.8003W
BUDr094/(19.5)BUCKEYE VOR109.8005W
APEr002/28.5APPLETON VORTAC116.7006W

 
NDB name  Hdg/Dist  Freq  Var  ID
MANNS231/12.137206WMF -- ..-.
TIFFIN142/38.626905WTII - .. ..

Airport Services

Runway Information

Runway 12/30

Dimensions: 2200 x 150 ft. / 671 x 46 m
Surface: turf
RUNWAY 12  RUNWAY 30
Traffic pattern: leftleft
Displaced threshold: 400 ft.no
Obstructions: 50 ft. trees, 200 ft. from runway50 ft. trees, 600 ft. from runway

Airport Ownership and Management from official FAA records

Ownership: Privately-owned
Owner: DAN SORG
7860 CO RD 29
BELLVILLE, OH 44813
Phone 419-362-8691

Airport Operational Statistics

Aircraft based on the field: 1
Single engine airplanes: 1
    

Additional Remarks

FOR CD CTC CLEVELAND APCH AT 216-352-2323, WHEN APCH CLSD CTC CLEVELAND ARTCC AT 440-774-0223.

Instrument Procedures

There are no published instrument procedures at 2OH4.

Some nearby airports with instrument procedures:

KGQQ - Galion Municipal Airport (9 nm NW)
4I9 - Morrow County Airport (11 nm SW)
KMFD - Mansfield Lahm Regional Airport (13 nm NE)
12G - Shelby Community Airport (15 nm N)
17G - Port Bucyrus-Crawford County Airport (18 nm NW)
4I3 - Knox County Airport (18 nm S)
KMNN - Marion Municipal Airport (19 nm W)
 
Loc | Ops | Rwys | IFR | FBO | Links
Com | Nav | Svcs | Stats | Notes
Area around 2OH4 (Cedar Creek Airport)
 
Road maps at: MapQuest Bing Google
 
Aerial photo
No photo
 
Sectional chart

 
Airport distance calculator
Flying to Cedar Creek Airport? Find the distance to fly.

From to 2OH4

Sunrise and sunset
Times for 12-Apr-2021
 Local
(UTC-4)
 Zulu
(UTC)
Morning civil twilight06:2910:29
Sunrise06:5810:58
Sunset20:0500:05
Evening civil twilight20:3300:33

Current date and time
Zulu (UTC)  12-Apr-2021 22:57:52
Local (UTC-4)  12-Apr-2021 18:57:52
 
METAR
KMFD 
13nm NE 
122252Z 23003KT 10SM SCT050 OVC070 13/09 A2984 RMK AO2 SLP105 T01330094
K4I3 
18nm S 
122255Z AUTO 26005KT 10SM SCT045 BKN060 BKN075 14/09 A2986 RMK AO2
KMNN 
20nm W 
122153Z AUTO 30010KT 10SM FEW038 FEW050 OVC065 15/08 A2982 RMK AO2 SLP100 T01500078
TAF
KMFD 
13nm NE 
121741Z 1218/1318 27010KT P6SM VCSH OVC015 TEMPO 1218/1219 5SM -SHRA BKN009 FM122000 28009KT P6SM VCSH SCT030 OVC060 FM130100 28008KT P6SM VCSH BKN030 FM130600 25006KT P6SM FEW250
NOTAMs
Click for the latest NOTAMs
NOTAMs are issued by the DoD/FAA and will open in a separate window not controlled by AirNav.

 

 
 

Would you like to see your business listed on this page?

 If your business provides an interesting product or service to pilots, flight crews, aircraft, or users of the Cedar Creek Airport, you should consider listing it here.  To start the listing process, click on the button below
 
Add a business
 

Other Pages about Cedar Creek Airport

Update a link
 
Copyright © AirNav, LLC. All rights reserved. Privacy Policy  Contact